createdAt,value
2023-05-11T00:01:07.974Z,93623.88
2023-05-11T00:03:37.267Z,93600.22
2023-05-11T00:06:04.349Z,93581.63
2023-05-11T00:08:30.738Z,93565.63
2023-05-11T00:10:57.162Z,93549.88
2023-05-11T00:13:23.500Z,93497.34
2023-05-11T00:15:50.107Z,93462.16
2023-05-11T00:18:16.549Z,93409.63
2023-05-11T00:20:43.055Z,93395.47
2023-05-11T00:23:09.433Z,93369.19
2023-05-11T00:25:35.793Z,93370.81
2023-05-11T00:28:02.145Z,93351.38
2023-05-11T00:30:28.750Z,93331.97
2023-05-11T00:32:55.179Z,93296.78
2023-05-11T00:35:21.561Z,93272.34
2023-05-11T00:37:48.444Z,93268.91
2023-05-11T00:40:14.782Z,93246.88
2023-05-11T00:42:41.185Z,93236.16
2023-05-11T00:45:07.959Z,93211.25
2023-05-11T00:47:34.355Z,93196.06
2023-05-11T00:50:00.833Z,93194.44
2023-05-11T00:52:27.355Z,93187.13
2023-05-11T00:54:53.741Z,93181.06
2023-05-11T00:57:21.210Z,93163.72
2023-05-11T00:59:49.074Z,93126.94
2023-05-11T01:02:15.683Z,93099.88
2023-05-11T01:04:42.050Z,93093.59
2023-05-11T01:07:17.397Z,93096.22
2023-05-11T01:10:10.355Z,93086.75
2023-05-11T01:12:54.886Z,93063.66
2023-05-11T01:15:24.756Z,93040.56
2023-05-11T01:17:58.287Z,93018.53
2023-05-11T01:20:27.254Z,93023.78
2023-05-11T01:23:12.078Z,93026.41
2023-05-11T01:26:11.482Z,93005.94
2023-05-11T01:28:43.965Z,93016.44
2023-05-11T01:31:10.930Z,93023.53
2023-05-11T01:33:38.066Z,93036.66
2023-05-11T01:36:06.472Z,93028.53
2023-05-11T01:38:33.877Z,93010.72
2023-05-11T01:41:00.739Z,92998.59
2023-05-11T01:43:28.044Z,93005.13
2023-05-11T01:45:55.949Z,92994.31
2023-05-11T01:48:26.071Z,92969.88
2023-05-11T01:50:52.778Z,92943.38
2023-05-11T01:53:19.795Z,92943.38
2023-05-11T01:55:46.287Z,92909.72
2023-05-11T01:58:13.577Z,92880.84
2023-05-11T02:00:39.952Z,92865.06
2023-05-11T02:03:06.505Z,92807.81
2023-05-11T02:05:33.470Z,92775.25
2023-05-11T02:07:59.938Z,92756.34
2023-05-11T02:10:26.728Z,92744.25
2023-05-11T02:12:53.369Z,92721.63
2023-05-11T02:15:21.050Z,92652.56
2023-05-11T02:17:47.750Z,92629.16
2023-05-11T02:20:14.327Z,92622.34
2023-05-11T02:22:41.192Z,92615.50
2023-05-11T02:25:08.188Z,92634.13
2023-05-11T02:27:36.091Z,92626.00
2023-05-11T02:30:03.977Z,92621.53
2023-05-11T02:32:30.798Z,92613.41
2023-05-11T02:35:01.938Z,92625.50
2023-05-11T02:37:29.412Z,92600.03
2023-05-11T02:40:00.846Z,92605.53
2023-05-11T02:42:27.855Z,92609.97
2023-05-11T02:45:08.261Z,92599.22
2023-05-11T02:47:47.667Z,92585.03
2023-05-11T02:50:14.112Z,92577.44
2023-05-11T02:52:44.679Z,92575.84
2023-05-11T02:55:11.117Z,92560.06
2023-05-11T02:57:38.306Z,92546.44
2023-05-11T03:00:05.623Z,92534.13
2023-05-11T03:02:32.299Z,92530.44
2023-05-11T03:04:58.690Z,92526.75
2023-05-11T03:07:25.228Z,92524.69
2023-05-11T03:09:51.594Z,92506.81
2023-05-11T03:12:17.919Z,92503.13
2023-05-11T03:14:44.259Z,92485.31
2023-05-11T03:17:12.031Z,92464.00
2023-05-11T03:19:38.443Z,92460.59
2023-05-11T03:22:04.846Z,92451.69
2023-05-11T03:24:31.420Z,92431.47
2023-05-11T03:26:57.855Z,92400.44
2023-05-11T03:29:25.413Z,92370.25
2023-05-11T03:31:51.995Z,92350.81
2023-05-11T03:34:18.364Z,92336.66
2023-05-11T03:36:45.285Z,92312.44
2023-05-11T03:39:12.382Z,92295.63
2023-05-11T03:41:39.175Z,92257.81
2023-05-11T03:44:06.324Z,92228.94
2023-05-11T03:46:32.906Z,92196.34
2023-05-11T03:48:59.345Z,92176.38
2023-05-11T03:51:26.040Z,92149.03
2023-05-11T03:53:52.438Z,92081.78
2023-05-11T03:56:18.798Z,91976.19
2023-05-11T03:58:45.342Z,91865.06
2023-05-11T04:01:12.851Z,91813.56
2023-05-11T04:03:52.661Z,91746.06
2023-05-11T04:06:19.408Z,91635.75
2023-05-11T04:08:45.765Z,91605.28
2023-05-11T04:11:12.129Z,91550.13
2023-05-11T04:13:38.694Z,91511.78
2023-05-11T04:16:05.748Z,91488.16
2023-05-11T04:18:32.182Z,91422.97
2023-05-11T04:20:58.580Z,91668.81
2023-05-11T04:23:24.919Z,91562.19
2023-05-11T04:25:54.627Z,91535.38
2023-05-11T04:28:22.493Z,90681.44
2023-05-11T04:30:53.889Z,90482.91
2023-05-11T04:33:20.534Z,90347.56
2023-05-11T04:35:47.099Z,89993.50
2023-05-11T04:38:13.431Z,89716.78
2023-05-11T04:40:39.972Z,89551.81
2023-05-11T04:43:06.510Z,89425.75
2023-05-11T04:45:32.885Z,89367.19
2023-05-11T04:47:59.286Z,89261.44
2023-05-11T04:50:25.858Z,89161.38
2023-05-11T04:52:52.245Z,89051.00
2023-05-11T04:55:18.712Z,88939.63
2023-05-11T04:57:45.412Z,88860.84
2023-05-11T05:00:12.305Z,88789.97
2023-05-11T05:02:38.777Z,88716.03
2023-05-11T05:05:05.702Z,88666.19
2023-05-11T05:07:32.052Z,88570.19
2023-05-11T05:09:58.423Z,88497.06
2023-05-11T05:12:25.006Z,88443.06
2023-05-11T05:14:51.355Z,88420.25
2023-05-11T05:17:17.692Z,88414.59
2023-05-11T05:19:44.051Z,88367.41
2023-05-11T05:22:11.078Z,88378.22
2023-05-11T05:24:37.450Z,88443.16
2023-05-11T05:27:03.962Z,88439.00
2023-05-11T05:29:30.409Z,88449.16
2023-05-11T05:31:58.990Z,88426.69
2023-05-11T05:34:25.858Z,88431.94
2023-05-11T05:36:52.212Z,88401.22
2023-05-11T05:39:18.625Z,88402.72
2023-05-11T05:41:45.260Z,88417.69
2023-05-11T05:44:11.672Z,88425.16
2023-05-11T05:46:38.273Z,88417.69
2023-05-11T05:49:04.934Z,88352.34
2023-05-11T05:51:31.307Z,88347.09
2023-05-11T05:53:57.642Z,88304.38
2023-05-11T05:56:24.012Z,88304.38
2023-05-11T05:58:50.335Z,88247.41
2023-05-11T06:01:16.693Z,88225.19
2023-05-11T06:03:45.155Z,88196.28
2023-05-11T06:06:11.966Z,88131.78
2023-05-11T06:08:38.357Z,88124.28
2023-05-11T06:11:05.038Z,88087.16
2023-05-11T06:13:31.476Z,88032.38
2023-05-11T06:15:57.861Z,87922.88
2023-05-11T06:18:24.436Z,87805.84
2023-05-11T06:20:51.519Z,87692.94
2023-05-11T06:23:17.854Z,87665.94
2023-05-11T06:25:44.386Z,87634.78
2023-05-11T06:28:10.731Z,87617.91
2023-05-11T06:30:37.111Z,87598.41
2023-05-11T06:33:03.822Z,87560.13
2023-05-11T06:35:33.133Z,87571.38
2023-05-11T06:37:59.562Z,87567.66
2023-05-11T06:40:26.263Z,87573.66
2023-05-11T06:42:52.644Z,87567.66
2023-05-11T06:45:19.091Z,87582.28
2023-05-11T06:47:45.613Z,87573.25
2023-05-11T06:50:12.227Z,87542.88
2023-05-11T06:52:38.727Z,87528.59
2023-05-11T06:55:05.748Z,87461.03
2023-05-11T06:57:32.133Z,87387.47
2023-05-11T06:59:58.487Z,87333.41
2023-05-11T07:02:25.063Z,87167.13
2023-05-11T07:04:51.523Z,87098.31
2023-05-11T07:07:17.918Z,87042.63
2023-05-11T07:09:44.311Z,87009.16
2023-05-11T07:12:11.096Z,87027.97
2023-05-11T07:14:38.234Z,87040.44
2023-05-11T07:17:04.799Z,87029.50
2023-05-11T07:19:31.220Z,86989.19
2023-05-11T07:21:57.752Z,86980.16
2023-05-11T07:24:24.359Z,86983.94
2023-05-11T07:26:51.761Z,86964.31
2023-05-11T07:29:18.304Z,86967.25
2023-05-11T07:31:44.917Z,87017.31
2023-05-11T07:34:11.273Z,87035.72
2023-05-11T07:36:37.639Z,87071.78
2023-05-11T07:39:04.189Z,87072.16
2023-05-11T07:41:33.469Z,87107.06
2023-05-11T07:44:00.338Z,87115.34
2023-05-11T07:46:26.978Z,87173.22
2023-05-11T07:49:00.577Z,87181.78
2023-05-11T07:51:40.012Z,87226.56
2023-05-11T07:54:06.382Z,87251.69
2023-05-11T07:56:32.761Z,87288.91
2023-05-11T07:58:59.132Z,87313.72
2023-05-11T08:01:25.732Z,87346.34
2023-05-11T08:03:52.119Z,87330.16
2023-05-11T08:06:18.584Z,87334.66
2023-05-11T08:08:44.952Z,87338.41
2023-05-11T08:11:11.305Z,87335.38
2023-05-11T08:13:37.852Z,87368.84
2023-05-11T08:16:04.630Z,87363.94
2023-05-11T08:18:31.264Z,87363.13
2023-05-11T08:20:57.748Z,87365.38
2023-05-11T08:23:24.136Z,87376.66
2023-05-11T08:25:54.526Z,87391.66
2023-05-11T08:28:21.199Z,87384.16
2023-05-11T08:30:54.025Z,87373.56
2023-05-11T08:33:36.420Z,87409.63
2023-05-11T08:36:05.628Z,87420.94
2023-05-11T08:38:32.065Z,87431.41
2023-05-11T08:40:58.438Z,87408.81
2023-05-11T08:43:24.794Z,87464.44
2023-05-11T08:45:52.597Z,87468.94
2023-05-11T08:48:20.959Z,87515.56
2023-05-11T08:50:47.450Z,87474.94
2023-05-11T08:53:14.096Z,87447.03
2023-05-11T08:55:41.804Z,87470.34
2023-05-11T08:58:08.407Z,87506.47
2023-05-11T09:00:35.042Z,87532.00
2023-05-11T09:03:02.450Z,87509.44
2023-05-11T09:05:29.390Z,87465.75
2023-05-11T09:08:00.298Z,87426.59
2023-05-11T09:10:26.843Z,87376.09
2023-05-11T09:12:53.376Z,86971.66
2023-05-11T09:15:20.089Z,86918.44
2023-05-11T09:17:46.710Z,86963.97
2023-05-11T09:20:13.388Z,86971.34
2023-05-11T09:22:44.078Z,86980.25
2023-05-11T09:25:15.124Z,87018.56
2023-05-11T09:27:45.424Z,87093.13
2023-05-11T09:30:22.070Z,87169.13
2023-05-11T09:32:53.477Z,87196.84
2023-05-11T09:35:21.652Z,87232.13
2023-05-11T09:38:07.784Z,87294.59
2023-05-11T09:40:35.693Z,87366.00
2023-05-11T09:43:28.881Z,87371.13
2023-05-11T09:45:56.915Z,87381.94
2023-05-11T09:48:31.620Z,87460.91
2023-05-11T09:51:05.928Z,87538.81
2023-05-11T09:53:44.065Z,87673.16
2023-05-11T09:56:10.734Z,87718.63
2023-05-11T09:58:49.346Z,87753.19
2023-05-11T10:01:16.896Z,87835.94
2023-05-11T10:03:51.013Z,87936.00
2023-05-11T10:06:19.921Z,87959.34
2023-05-11T10:08:46.799Z,87984.13
2023-05-11T10:11:13.186Z,88044.31
2023-05-11T10:13:39.818Z,88157.22
2023-05-11T10:16:09.971Z,88276.19
2023-05-11T10:18:36.530Z,88436.53
2023-05-11T10:21:03.133Z,88528.81
2023-05-11T10:23:30.875Z,88742.91
2023-05-11T10:25:57.865Z,88953.00
2023-05-11T10:28:24.231Z,89065.69
2023-05-11T10:30:51.831Z,89164.91
2023-05-11T10:33:18.195Z,89261.50
2023-05-11T10:35:45.546Z,89379.91
2023-05-11T10:38:13.168Z,89479.56
2023-05-11T10:40:42.027Z,89571.59
2023-05-11T10:43:42.637Z,89821.41
2023-05-11T10:46:16.696Z,89996.34
2023-05-11T10:48:49.520Z,90110.56
2023-05-11T10:51:18.784Z,90305.97
2023-05-11T10:54:03.915Z,90381.06
2023-05-11T10:56:33.223Z,90304.03
2023-05-11T10:59:24.572Z,90402.91
2023-05-11T11:01:52.297Z,90526.81
2023-05-11T11:04:20.442Z,90710.19
2023-05-11T11:06:47.050Z,90900.69
2023-05-11T11:09:15.469Z,91081.38
2023-05-11T11:11:45.840Z,91197.44
2023-05-11T11:14:16.292Z,91278.28
2023-05-11T11:17:18.064Z,91215.28
2023-05-11T11:19:44.590Z,91190.28
2023-05-11T11:22:41.570Z,91199.41
2023-05-11T11:25:15.366Z,91256.97
2023-05-11T11:27:41.954Z,91229.50
2023-05-11T11:30:18.512Z,91138.44
2023-05-11T11:32:48.953Z,91132.06
2023-05-11T11:35:43.603Z,91139.38
2023-05-11T11:38:11.152Z,91145.25
2023-05-11T11:40:55.832Z,91123.84
2023-05-11T11:43:27.483Z,91121.06
2023-05-11T11:45:54.562Z,91076.81
2023-05-11T11:48:33.565Z,91004.72
2023-05-11T11:51:04.930Z,90946.22
2023-05-11T11:53:37.649Z,90937.34
2023-05-11T11:56:04.726Z,90962.81
2023-05-11T11:58:40.100Z,90996.03
2023-05-11T12:01:11.713Z,91038.22
2023-05-11T12:03:38.434Z,91069.72
2023-05-11T12:06:05.981Z,90995.25
2023-05-11T12:08:32.469Z,90860.09
2023-05-11T12:10:59.454Z,90717.84
2023-05-11T12:13:26.089Z,90596.72
2023-05-11T12:16:12.177Z,90436.09
2023-05-11T12:18:39.342Z,90329.28
2023-05-11T12:21:05.852Z,90177.47
2023-05-11T12:23:32.396Z,90097.41
2023-05-11T12:26:06.073Z,89866.25
2023-05-11T12:28:33.084Z,89686.19
2023-05-11T12:31:00.860Z,89526.19
2023-05-11T12:33:27.587Z,89420.28
2023-05-11T12:35:54.736Z,89162.78
2023-05-11T12:38:21.387Z,89029.16
2023-05-11T12:40:52.222Z,88902.41
2023-05-11T12:43:19.681Z,88742.84
2023-05-11T12:45:46.315Z,88607.34
2023-05-11T12:48:13.578Z,88466.59
2023-05-11T12:50:46.446Z,88345.44
2023-05-11T12:53:19.832Z,88198.25
2023-05-11T12:55:57.428Z,88164.78
2023-05-11T12:58:23.862Z,88301.00
2023-05-11T13:00:54.686Z,88272.41
2023-05-11T13:03:25.194Z,88185.09
2023-05-11T13:05:52.158Z,88126.72
2023-05-11T13:08:19.001Z,88054.72
2023-05-11T13:10:47.245Z,87854.03
2023-05-11T13:13:27.455Z,87676.28
2023-05-11T13:15:54.464Z,87772.88
2023-05-11T13:18:21.025Z,87987.84
2023-05-11T13:20:47.536Z,88259.31
2023-05-11T13:23:15.419Z,88592.97
2023-05-11T13:25:51.489Z,89844.06
2023-05-11T13:28:19.116Z,90758.09
2023-05-11T13:30:46.057Z,91520.09
2023-05-11T13:33:12.604Z,91904.47
2023-05-11T13:35:39.921Z,92009.56
2023-05-11T13:38:06.870Z,92416.22
2023-05-11T13:40:33.808Z,92591.06
2023-05-11T13:43:00.640Z,92399.88
2023-05-11T13:45:27.104Z,92313.56
2023-05-11T13:47:55.158Z,92311.56
2023-05-11T13:50:25.311Z,92250.97
2023-05-11T13:52:52.232Z,92190.59
2023-05-11T13:55:18.873Z,92174.56
2023-05-11T13:57:45.588Z,92152.31
2023-05-11T14:00:12.782Z,92368.97
2023-05-11T14:02:39.243Z,92262.25
2023-05-11T14:05:06.391Z,92344.00
2023-05-11T14:07:42.817Z,92302.63
2023-05-11T14:10:13.701Z,92329.31
2023-05-11T14:12:40.951Z,92415.75
2023-05-11T14:15:07.964Z,92875.59
2023-05-11T14:17:34.620Z,93001.72
2023-05-11T14:20:01.403Z,92975.25
2023-05-11T14:22:29.061Z,92873.06
2023-05-11T14:24:56.121Z,92822.69
2023-05-11T14:27:23.142Z,92784.53
2023-05-11T14:29:51.392Z,92881.47
2023-05-11T14:32:19.332Z,92998.91
2023-05-11T14:34:45.840Z,92996.16
2023-05-11T14:37:13.103Z,93072.47
2023-05-11T14:39:40.632Z,93176.91
2023-05-11T14:42:07.603Z,93385.56
2023-05-11T14:44:33.959Z,93386.09
2023-05-11T14:47:00.493Z,93454.13
2023-05-11T14:49:26.892Z,93383.69
2023-05-11T14:51:53.249Z,93466.63
2023-05-11T14:54:19.823Z,93407.72
2023-05-11T14:56:51.236Z,93851.25
2023-05-11T14:59:17.589Z,94397.81
2023-05-11T15:01:44.160Z,94691.94
2023-05-11T15:04:10.779Z,94828.06
2023-05-11T15:06:37.163Z,94733.09
2023-05-11T15:09:04.184Z,94701.84
2023-05-11T15:11:30.633Z,94618.66
2023-05-11T15:13:56.992Z,95061.84
2023-05-11T15:16:23.409Z,95243.59
2023-05-11T15:18:49.987Z,95436.84
2023-05-11T15:21:16.613Z,95421.31
2023-05-11T15:23:43.153Z,95326.91
2023-05-11T15:26:09.918Z,95587.38
2023-05-11T15:28:36.267Z,95454.69
2023-05-11T15:31:02.798Z,95862.81
2023-05-11T15:33:29.484Z,95790.66
2023-05-11T15:35:55.863Z,95935.03
2023-05-11T15:38:22.493Z,95999.53
2023-05-11T15:40:48.853Z,95511.06
2023-05-11T15:43:15.745Z,95541.22
2023-05-11T15:45:42.168Z,95236.59
2023-05-11T15:48:08.575Z,95192.91
2023-05-11T15:50:34.940Z,95298.41
2023-05-11T15:53:01.437Z,95126.91
2023-05-11T15:55:27.829Z,94995.47
2023-05-11T15:57:54.154Z,95282.59
2023-05-11T16:00:20.995Z,95352.91
2023-05-11T16:02:48.964Z,94976.72
2023-05-11T16:05:15.738Z,94750.59
2023-05-11T16:07:42.125Z,94594.72
2023-05-11T16:10:08.943Z,94332.56
2023-05-11T16:12:35.350Z,92057.03
2023-05-11T16:15:01.811Z,78996.66
2023-05-11T16:17:28.287Z,77614.91
2023-05-11T16:19:54.790Z,76898.41
2023-05-11T16:22:21.195Z,77630.59
2023-05-11T16:24:47.536Z,77992.34
2023-05-11T16:27:13.881Z,78169.63
2023-05-11T16:29:40.447Z,78837.56
2023-05-11T16:32:06.955Z,79022.00
2023-05-11T16:34:35.009Z,79260.69
2023-05-11T16:37:01.450Z,79373.78
2023-05-11T16:39:27.826Z,79461.56
2023-05-11T16:41:54.270Z,79673.47
2023-05-11T16:44:21.120Z,79934.97
2023-05-11T16:46:47.801Z,80236.13
2023-05-11T16:49:14.208Z,80266.00
2023-05-11T16:51:40.585Z,81020.09
2023-05-11T16:54:07.238Z,81257.38
2023-05-11T16:56:33.674Z,81306.56
2023-05-11T16:59:00.142Z,81306.56
2023-05-11T17:01:26.804Z,81451.31
2023-05-11T17:03:53.325Z,60439.47
2023-05-11T17:06:22.730Z,60439.47
2023-05-11T17:08:49.393Z,81773.59
2023-05-11T17:11:15.743Z,82303.94
2023-05-11T17:13:42.354Z,60439.47
2023-05-11T17:16:08.818Z,82348.72
2023-05-11T17:18:35.445Z,82697.69
2023-05-11T17:21:01.858Z,82790.84
2023-05-11T17:23:28.513Z,82986.56
2023-05-11T17:25:54.994Z,62881.16
2023-05-11T17:28:22.170Z,82607.78
2023-05-11T17:30:54.686Z,82793.09
2023-05-11T17:33:21.248Z,82793.09
2023-05-11T17:35:48.225Z,82361.03
2023-05-11T17:38:14.647Z,82505.59
2023-05-11T17:40:41.337Z,82411.22
2023-05-11T17:43:07.718Z,82242.47
2023-05-11T17:45:34.248Z,82196.66
2023-05-11T17:48:00.906Z,82196.66
2023-05-11T17:50:27.870Z,60439.47
2023-05-11T17:52:54.570Z,81445.47
2023-05-11T17:55:21.520Z,81782.91
2023-05-11T17:57:48.294Z,81918.84
2023-05-11T18:00:15.172Z,82052.31
2023-05-11T18:02:42.210Z,82052.31
2023-05-11T18:05:08.920Z,82052.31
2023-05-11T18:07:35.312Z,81656.84
2023-05-11T18:10:01.755Z,82090.59
2023-05-11T18:12:30.396Z,82329.91
2023-05-11T18:14:56.785Z,82516.53
2023-05-11T18:17:23.432Z,82665.81
2023-05-11T18:19:49.922Z,82797.75
2023-05-11T18:22:16.286Z,82867.81
2023-05-11T18:24:42.698Z,82907.56
2023-05-11T18:27:09.370Z,82949.47
2023-05-11T18:29:37.340Z,82996.19
2023-05-11T18:32:04.058Z,83001.78
2023-05-11T18:34:30.583Z,83077.22
2023-05-11T18:36:57.045Z,83109.53
2023-05-11T18:39:23.797Z,83159.78
2023-05-11T18:41:50.453Z,83226.63
2023-05-11T18:44:18.493Z,83283.66
2023-05-11T18:46:45.069Z,83318.19
2023-05-11T18:49:11.545Z,83381.16
2023-05-11T18:51:38.578Z,83432.69
2023-05-11T18:54:05.297Z,83491.09
2023-05-11T18:56:31.850Z,83561.75
2023-05-11T18:58:58.408Z,83615.38
2023-05-11T19:01:33.142Z,83669.03
2023-05-11T19:04:09.104Z,83697.75
2023-05-11T19:06:35.834Z,83773.16
2023-05-11T19:09:03.008Z,83832.06
2023-05-11T19:11:29.869Z,83884.75
2023-05-11T19:13:56.351Z,83946.72
2023-05-11T19:16:23.018Z,83997.69
2023-05-11T19:18:49.708Z,84098.44
2023-05-11T19:21:16.989Z,84125.00
2023-05-11T19:23:43.481Z,84137.69
2023-05-11T19:26:09.970Z,84199.88
2023-05-11T19:28:36.474Z,84235.78
2023-05-11T19:31:03.488Z,84306.31
2023-05-11T19:33:30.151Z,84364.88
2023-05-11T19:35:56.560Z,84434.88
2023-05-11T19:38:23.148Z,84495.06
2023-05-11T19:40:49.921Z,84550.28
2023-05-11T19:43:16.631Z,84582.78
2023-05-11T19:45:46.283Z,84602.91
2023-05-11T19:48:13.548Z,84636.81
2023-05-11T19:50:40.795Z,84676.03
2023-05-11T19:53:07.252Z,84699.50
2023-05-11T19:55:33.746Z,84741.78
2023-05-11T19:58:00.302Z,84762.00
2023-05-11T20:00:26.968Z,84767.09
2023-05-11T20:02:53.789Z,84809.56
2023-05-11T20:05:20.465Z,84859.91
2023-05-11T20:07:46.959Z,84874.41
2023-05-11T20:10:13.712Z,84918.28
2023-05-11T20:12:40.262Z,84967.16
2023-05-11T20:15:07.446Z,84995.81
2023-05-11T20:17:34.786Z,85039.38
2023-05-11T20:20:02.119Z,85074.19
2023-05-11T20:22:28.648Z,85097.28
2023-05-11T20:24:55.227Z,85144.63
2023-05-11T20:27:22.142Z,85158.06
2023-05-11T20:29:48.586Z,85172.13
2023-05-11T20:32:15.175Z,85189.94
2023-05-11T20:34:41.680Z,85223.22
2023-05-11T20:37:08.176Z,85188.31
2023-05-11T20:39:34.701Z,85184.50
2023-05-11T20:42:04.506Z,85200.44
2023-05-11T20:44:30.958Z,85232.56
2023-05-11T20:46:57.699Z,85263.78
2023-05-11T20:49:37.574Z,85255.63
2023-05-11T20:52:05.380Z,85277.25
2023-05-11T20:54:33.818Z,85310.81
2023-05-11T20:57:01.431Z,85332.25
2023-05-11T21:01:58.694Z,85372.09
2023-05-11T21:04:25.343Z,85395.44
2023-05-11T21:06:54.411Z,85414.69
2023-05-11T21:09:20.954Z,85445.94
2023-05-11T21:11:48.792Z,85486.03
2023-05-11T21:14:15.350Z,85517.69
2023-05-11T21:16:43.862Z,85553.25
2023-05-11T21:19:10.397Z,85568.72
2023-05-11T21:21:36.954Z,85624.22
2023-05-11T21:24:04.129Z,85612.44
2023-05-11T21:26:30.658Z,85611.28
2023-05-11T21:28:57.480Z,85636.06
2023-05-11T21:31:23.876Z,85646.56
2023-05-11T21:33:50.332Z,85676.00
2023-05-11T21:36:16.714Z,85687.38
2023-05-11T21:38:43.055Z,85699.34
2023-05-11T21:41:09.410Z,85737.47
2023-05-11T21:43:35.830Z,85751.44
2023-05-11T21:46:02.472Z,85779.41
2023-05-11T21:48:29.570Z,85798.31
2023-05-11T21:50:55.959Z,85803.69
2023-05-11T21:53:22.642Z,85826.28
2023-05-11T21:55:49.829Z,85860.91
2023-05-11T21:58:16.789Z,85872.25
2023-05-11T22:00:43.151Z,85872.25
2023-05-11T22:03:09.654Z,85885.03
2023-05-11T22:05:36.221Z,85900.19
2023-05-11T22:08:10.857Z,85920.13
2023-05-11T22:10:41.594Z,85915.28
2023-05-11T22:13:07.957Z,85928.41
2023-05-11T22:15:34.348Z,85940.13
2023-05-11T22:18:01.240Z,85962.69
2023-05-11T22:20:27.598Z,85986.00
2023-05-11T22:22:53.945Z,85989.75
2023-05-11T22:25:20.601Z,86021.75
2023-05-11T22:27:47.091Z,86040.31
2023-05-11T22:30:13.555Z,86067.34
2023-05-11T22:32:40.317Z,86086.13
2023-05-11T22:35:07.316Z,86090.66
2023-05-11T22:37:33.913Z,86098.19
2023-05-11T22:40:00.313Z,86102.59
2023-05-11T22:42:27.081Z,86101.44
2023-05-11T22:44:53.550Z,86112.28
2023-05-11T22:47:20.174Z,86123.50
2023-05-11T22:49:46.507Z,86130.97
2023-05-11T22:52:12.877Z,86133.91
2023-05-11T22:54:39.515Z,86150.38
2023-05-11T22:57:06.364Z,86139.78
2023-05-11T22:59:34.553Z,86147.25
2023-05-11T23:02:03.211Z,86168.63
2023-05-11T23:04:30.945Z,86186.28
2023-05-11T23:06:58.418Z,86193.75
2023-05-11T23:09:24.981Z,86195.22
2023-05-11T23:11:51.311Z,86204.88
2023-05-11T23:14:17.711Z,86213.06
2023-05-11T23:16:44.259Z,86214.53
2023-05-11T23:19:10.659Z,86205.88
2023-05-11T23:21:37.021Z,86227.56
2023-05-11T23:24:04.813Z,86230.63
2023-05-11T23:26:31.144Z,86251.63
2023-05-11T23:28:57.501Z,86258.00
2023-05-11T23:31:24.090Z,86268.16
2023-05-11T23:33:50.458Z,86260.22
2023-05-11T23:36:17.004Z,86257.19
2023-05-11T23:38:43.672Z,86279.81
2023-05-11T23:41:10.031Z,86268.47
2023-05-11T23:43:37.183Z,86272.25
2023-05-11T23:46:03.605Z,86250.47
2023-05-11T23:48:29.984Z,86272.25
2023-05-11T23:50:56.450Z,86278.31
2023-05-11T23:53:22.978Z,86264.47
2023-05-11T23:55:49.381Z,86282.84
2023-05-11T23:58:15.833Z,86279.16
